Time;durP1;ratioP1;P1;durP2;ratioP2;P2;SDS_P1;SDS_P2;PMS_P1;PMS_P2;Temp;Humidity;BMP_temperature;BMP_pressure;BME280_temperature;BME280_humidity;BME280_pressure;Samples;Min_cycle;Max_cycle;Signal;HPM_P1;HPM_P2
2022/01/31 00:00:37;;;;;;;9.67;6.00;;;5.90;99.90;;;;;;5014890;28;20437;-69
2022/01/31 00:03:03;;;;;;;7.70;5.43;;;5.80;99.90;;;;;;5033145;28;20887;-69
2022/01/31 00:05:28;;;;;;;8.43;4.73;;;5.70;99.90;;;;;;5032235;28;20931;-69
2022/01/31 00:07:54;;;;;;;8.53;4.93;;;5.80;99.90;;;;;;5032264;28;20445;-70
2022/01/31 00:10:29;;;;;;;8.90;5.20;;;5.60;99.90;;;;;;5032288;28;20649;-70
2022/01/31 00:13:05;;;;;;;11.47;5.20;;;5.60;99.90;;;;;;5032566;28;20181;-69
2022/01/31 00:15:32;;;;;;;6.90;5.13;;;5.50;99.90;;;;;;5032333;28;20572;-69
2022/01/31 00:17:58;;;;;;;13.80;5.07;;;5.50;99.90;;;;;;5032250;28;20406;-69
2022/01/31 00:20:23;;;;;;;9.70;4.70;;;5.50;99.90;;;;;;5032174;28;20675;-70
2022/01/31 00:22:49;;;;;;;10.53;4.30;;;5.50;99.90;;;;;;5048281;28;20673;-70
2022/01/31 00:25:15;;;;;;;8.57;4.77;;;5.50;99.90;;;;;;5052154;28;20367;-69
2022/01/31 00:27:41;;;;;;;10.50;4.97;;;5.50;99.90;;;;;;5051731;28;20405;-69
2022/01/31 00:30:07;;;;;;;8.50;4.70;;;5.50;99.90;;;;;;5051812;28;20174;-69
2022/01/31 00:32:32;;;;;;;5.37;4.37;;;5.50;99.90;;;;;;5051854;28;20631;-69
2022/01/31 00:34:59;;;;;;;6.97;3.93;;;5.50;99.90;;;;;;5051952;28;20492;-68
2022/01/31 00:37:25;;;;;;;6.10;4.13;;;5.50;99.90;;;;;;5051510;28;20261;-69
2022/01/31 00:39:51;;;;;;;11.07;4.40;;;5.50;99.90;;;;;;5049922;28;20448;-69
2022/01/31 00:42:19;;;;;;;4.70;4.30;;;5.40;99.90;;;;;;5051484;28;20444;-69
2022/01/31 00:44:51;;;;;;;9.13;4.40;;;5.40;99.90;;;;;;5051737;28;20458;-69
2022/01/31 00:47:21;;;;;;;8.50;4.33;;;5.30;99.90;;;;;;5033132;28;20470;-69
2022/01/31 00:49:51;;;;;;;10.50;4.60;;;5.30;99.90;;;;;;5051774;28;20474;-69
2022/01/31 00:52:17;;;;;;;6.97;4.40;;;5.30;99.90;;;;;;5051530;28;20438;-69
2022/01/31 00:54:43;;;;;;;9.90;5.00;;;5.40;99.90;;;;;;5046133;28;20837;-69
2022/01/31 00:57:09;;;;;;;11.83;4.47;;;5.40;99.90;;;;;;5031412;28;20410;-69
2022/01/31 00:59:34;;;;;;;7.97;4.40;;;5.40;99.90;;;;;;5031502;28;20410;-69
2022/01/31 01:02:00;;;;;;;8.50;3.90;;;5.40;99.90;;;;;;5031590;28;20202;-70
2022/01/31 01:04:25;;;;;;;9.00;4.77;;;5.40;99.90;;;;;;5031527;28;20618;-69
2022/01/31 01:06:51;;;;;;;9.50;4.30;;;5.50;99.90;;;;;;5031342;28;20175;-69
2022/01/31 01:09:16;;;;;;;9.73;4.40;;;5.50;99.90;;;;;;5025274;28;20194;-69
2022/01/31 01:11:42;;;;;;;13.80;4.03;;;5.50;99.90;;;;;;5032090;28;20194;-69
2022/01/31 01:14:08;;;;;;;9.57;4.47;;;5.40;99.90;;;;;;5014885;28;20540;-69
2022/01/31 01:16:34;;;;;;;10.20;4.70;;;5.50;99.90;;;;;;5011385;28;20176;-69
2022/01/31 01:18:59;;;;;;;6.20;4.03;;;5.50;99.90;;;;;;5011713;28;20406;-70
2022/01/31 01:21:25;;;;;;;9.03;3.93;;;5.60;99.90;;;;;;5011870;28;20739;-69
2022/01/31 01:23:51;;;;;;;10.33;4.27;;;5.50;99.90;;;;;;5036458;28;20692;-69
2022/01/31 01:26:16;;;;;;;14.40;5.30;;;5.60;99.90;;;;;;5051065;28;20586;-69
2022/01/31 01:28:44;;;;;;;15.40;4.33;;;5.50;99.90;;;;;;5050527;28;20201;-69
2022/01/31 01:31:10;;;;;;;8.83;4.03;;;5.60;99.90;;;;;;5051033;28;20196;-69
2022/01/31 01:33:39;;;;;;;8.57;4.10;;;5.60;99.90;;;;;;5049515;28;20503;-70
2022/01/31 01:36:06;;;;;;;10.10;4.10;;;5.70;99.90;;;;;;5050865;28;20175;-70
2022/01/31 01:38:32;;;;;;;9.87;4.40;;;5.70;99.90;;;;;;5051076;28;20920;-70
2022/01/31 01:40:59;;;;;;;15.57;4.20;;;5.70;99.90;;;;;;5051280;28;20437;-70
2022/01/31 01:43:25;;;;;;;5.27;3.40;;;5.60;99.90;;;;;;5038755;28;20436;-69
2022/01/31 01:45:55;;;;;;;10.00;4.53;;;5.70;99.90;;;;;;5029861;28;20448;-70
2022/01/31 01:48:21;;;;;;;9.40;4.27;;;5.70;99.90;;;;;;5029471;28;20457;-69
2022/01/31 01:50:47;;;;;;;7.80;4.10;;;5.70;99.90;;;;;;5025749;28;20488;-69
2022/01/31 01:53:13;;;;;;;9.70;4.33;;;5.70;99.90;;;;;;5031808;28;20190;-69
2022/01/31 01:55:39;;;;;;;11.17;5.33;;;5.70;99.90;;;;;;5032377;28;20417;-69
2022/01/31 01:58:14;;;;;;;8.00;4.07;;;5.70;99.90;;;;;;5028045;28;20432;-69
2022/01/31 02:03:24;;;;;;;5.73;3.50;;;5.70;99.90;;;;;;5025852;28;20463;-69
2022/01/31 02:05:49;;;;;;;11.80;3.80;;;5.70;99.90;;;;;;5026820;28;20855;-69
2022/01/31 02:08:19;;;;;;;11.27;4.10;;;5.70;99.90;;;;;;5025147;28;20872;-69
2022/01/31 02:10:45;;;;;;;10.27;4.60;;;5.70;99.90;;;;;;5030879;28;20213;-69
2022/01/31 02:13:12;;;;;;;6.13;3.80;;;5.70;99.90;;;;;;5031901;28;20422;-69
2022/01/31 02:15:39;;;;;;;8.47;4.10;;;5.60;99.90;;;;;;5035560;28;20899;-69
2022/01/31 02:18:05;;;;;;;12.10;4.57;;;5.50;99.90;;;;;;5030656;28;20496;-69
2022/01/31 02:20:31;;;;;;;11.47;4.30;;;5.60;99.90;;;;;;5043701;28;20542;-68
2022/01/31 02:22:57;;;;;;;12.70;3.90;;;5.60;99.90;;;;;;5053645;28;20182;-69
2022/01/31 02:25:23;;;;;;;14.03;4.00;;;5.60;99.90;;;;;;5054368;28;20597;-69
2022/01/31 02:27:48;;;;;;;10.67;4.90;;;5.60;99.90;;;;;;5037098;28;20512;-69
2022/01/31 02:30:16;;;;;;;7.53;4.27;;;5.60;99.90;;;;;;5033013;28;20197;-68
2022/01/31 02:32:43;;;;;;;7.87;4.00;;;5.60;99.90;;;;;;5052085;28;20574;-70
2022/01/31 02:35:08;;;;;;;7.70;4.10;;;5.60;99.90;;;;;;5054089;28;20413;-69
2022/01/31 02:37:34;;;;;;;7.40;4.00;;;5.50;99.90;;;;;;5048363;28;20940;-69
2022/01/31 02:40:00;;;;;;;14.00;5.27;;;5.40;99.90;;;;;;5035935;28;20488;-69
2022/01/31 02:42:26;;;;;;;14.33;4.37;;;5.40;99.90;;;;;;5038071;28;20175;-69
2022/01/31 02:44:52;;;;;;;5.67;4.00;;;5.40;99.90;;;;;;5038053;28;20217;-69
2022/01/31 02:47:26;;;;;;;10.73;4.43;;;5.50;99.90;;;;;;5039866;28;20424;-69
2022/01/31 02:49:58;;;;;;;10.97;4.33;;;5.30;99.90;;;;;;5020004;28;20181;-69
2022/01/31 02:52:28;;;;;;;6.63;3.80;;;5.30;99.90;;;;;;5053652;28;20570;-69
2022/01/31 02:54:53;;;;;;;10.30;4.23;;;5.30;99.90;;;;;;5035589;28;20786;-69
2022/01/31 02:57:19;;;;;;;7.47;4.00;;;5.20;99.90;;;;;;5034123;28;20434;-69
2022/01/31 02:59:45;;;;;;;13.77;5.20;;;5.10;99.90;;;;;;5040841;28;20178;-69
2022/01/31 03:02:10;;;;;;;5.50;3.90;;;5.00;99.90;;;;;;5040962;28;20292;-69
2022/01/31 03:04:36;;;;;;;9.73;4.50;;;4.80;99.90;;;;;;5036916;28;20207;-69
2022/01/31 03:07:02;;;;;;;11.17;4.70;;;4.80;99.90;;;;;;5039998;28;20182;-69
2022/01/31 03:09:27;;;;;;;11.43;5.40;;;4.80;99.90;;;;;;5053098;28;20231;-69
2022/01/31 03:11:53;;;;;;;11.20;5.10;;;4.70;99.90;;;;;;5035620;28;20463;-69
2022/01/31 03:14:19;;;;;;;6.63;5.10;;;4.70;99.90;;;;;;5051301;28;20339;-69
2022/01/31 03:16:48;;;;;;;5.60;3.97;;;4.80;99.90;;;;;;5040624;28;20511;-70
2022/01/31 03:19:16;;;;;;;6.10;4.20;;;4.80;99.90;;;;;;5030133;28;20186;-69
2022/01/31 03:21:42;;;;;;;7.50;4.63;;;4.70;99.90;;;;;;5032730;28;20574;-69
2022/01/31 03:24:08;;;;;;;14.53;4.57;;;4.60;99.90;;;;;;5037154;28;21013;-69
2022/01/31 03:26:34;;;;;;;8.93;3.73;;;4.60;99.90;;;;;;5052762;28;20915;-70
2022/01/31 03:29:00;;;;;;;7.60;4.20;;;4.60;99.90;;;;;;5041859;28;20428;-69
2022/01/31 03:31:26;;;;;;;7.83;4.20;;;4.70;99.90;;;;;;5029733;28;20272;-69
2022/01/31 03:33:52;;;;;;;10.73;4.17;;;4.60;99.90;;;;;;5029649;28;20534;-69
2022/01/31 03:36:18;;;;;;;4.63;3.33;;;4.70;99.90;;;;;;5035230;28;20797;-69
2022/01/31 03:38:44;;;;;;;6.73;3.20;;;4.70;99.90;;;;;;5028970;28;20506;-69
2022/01/31 03:41:12;;;;;;;3.83;3.20;;;4.70;99.90;;;;;;5032937;28;20213;-69
2022/01/31 03:43:38;;;;;;;3.60;2.63;;;4.70;99.90;;;;;;5037708;28;20461;-69
2022/01/31 03:46:04;;;;;;;3.73;3.00;;;4.70;99.90;;;;;;5013732;28;20445;-69
2022/01/31 03:48:30;;;;;;;5.23;3.23;;;4.70;99.90;;;;;;5007630;28;20432;-69
2022/01/31 03:50:56;;;;;;;5.43;3.00;;;4.80;99.90;;;;;;5036799;28;20510;-69
2022/01/31 03:53:22;;;;;;;3.70;3.23;;;4.60;99.90;;;;;;5033638;28;20519;-69
2022/01/31 03:55:47;;;;;;;7.07;3.50;;;4.50;99.90;;;;;;5013711;28;20537;-69
2022/01/31 03:58:13;;;;;;;7.13;3.73;;;4.50;99.90;;;;;;5038809;28;20624;-69
2022/01/31 04:00:39;;;;;;;6.00;3.37;;;4.70;99.90;;;;;;5032940;28;20205;-69
2022/01/31 04:03:05;;;;;;;4.60;3.60;;;4.70;99.90;;;;;;5033402;28;20193;-69
2022/01/31 04:05:31;;;;;;;4.07;3.63;;;4.80;99.90;;;;;;5069392;22;20748;-68
2022/01/31 04:07:57;;;;;;;5.27;3.93;;;4.80;99.90;;;;;;5044404;28;20483;-68
2022/01/31 04:10:23;;;;;;;4.67;4.27;;;4.90;99.90;;;;;;5056915;28;20456;-70
2022/01/31 04:12:48;;;;;;;5.10;4.20;;;4.80;99.90;;;;;;5056436;28;20458;-70
2022/01/31 04:15:14;;;;;;;7.40;4.20;;;4.80;99.90;;;;;;5040784;28;20211;-69
2022/01/31 04:17:40;;;;;;;8.13;3.80;;;4.90;99.90;;;;;;5036118;28;20573;-68
2022/01/31 04:20:08;;;;;;;11.47;4.40;;;4.90;99.90;;;;;;5032150;28;20583;-68
2022/01/31 04:22:37;;;;;;;8.00;4.07;;;4.80;99.90;;;;;;5031756;28;20214;-69
2022/01/31 04:25:05;;;;;;;4.30;3.87;;;4.80;99.90;;;;;;5033729;28;20488;-69
2022/01/31 04:27:43;;;;;;;5.03;4.53;;;4.90;99.90;;;;;;5032231;28;20503;-69
2022/01/31 04:30:12;;;;;;;7.97;4.60;;;4.90;99.90;;;;;;5030535;28;20452;-69
2022/01/31 04:32:38;;;;;;;6.00;3.83;;;4.90;99.90;;;;;;5013331;28;20433;-68
2022/01/31 04:35:04;;;;;;;8.00;4.80;;;4.90;99.90;;;;;;5033266;28;20448;-69
2022/01/31 04:37:29;;;;;;;7.00;4.60;;;5.00;99.90;;;;;;5025331;28;20690;-68
2022/01/31 04:39:55;;;;;;;10.13;4.07;;;5.10;99.90;;;;;;5030882;28;20467;-68
2022/01/31 04:42:20;;;;;;;7.07;5.17;;;5.00;99.90;;;;;;5022283;28;20206;-68
2022/01/31 04:44:46;;;;;;;6.33;5.13;;;5.00;99.90;;;;;;5025133;28;20250;-68
2022/01/31 04:47:12;;;;;;;6.70;5.30;;;5.00;99.90;;;;;;5012654;28;20253;-69
2022/01/31 04:49:37;;;;;;;6.10;5.00;;;5.00;99.90;;;;;;5024384;28;20234;-68
2022/01/31 04:52:03;;;;;;;5.20;4.70;;;5.10;99.90;;;;;;5030680;28;20289;-68
2022/01/31 04:54:29;;;;;;;7.47;5.13;;;5.10;99.90;;;;;;5023898;28;20288;-69
2022/01/31 04:56:54;;;;;;;6.43;5.03;;;5.00;99.90;;;;;;5013357;28;20448;-68
2022/01/31 04:59:20;;;;;;;8.63;5.30;;;5.10;99.90;;;;;;5021198;28;20218;-69
2022/01/31 05:01:47;;;;;;;7.27;4.87;;;5.20;99.90;;;;;;5028583;28;20671;-69
2022/01/31 05:04:13;;;;;;;7.43;5.30;;;5.20;99.90;;;;;;5012727;28;20246;-69
2022/01/31 05:06:40;;;;;;;5.80;5.30;;;5.30;99.90;;;;;;5012215;28;20410;-68
2022/01/31 05:09:07;;;;;;;6.03;5.30;;;5.40;99.90;;;;;;5013500;28;20889;-68
2022/01/31 05:11:33;;;;;;;7.83;5.17;;;5.40;99.90;;;;;;5030366;28;20422;-69
2022/01/31 05:13:58;;;;;;;7.90;5.97;;;5.40;99.90;;;;;;5015032;28;20429;-69
2022/01/31 05:16:24;;;;;;;7.97;5.23;;;5.50;99.90;;;;;;5032772;28;20664;-68
2022/01/31 05:18:49;;;;;;;11.17;6.07;;;5.40;99.90;;;;;;5033026;28;20175;-68
2022/01/31 05:21:15;;;;;;;6.80;4.00;;;5.50;99.90;;;;;;5034303;28;20672;-69
2022/01/31 05:23:41;;;;;;;6.43;5.40;;;5.50;99.90;;;;;;5033283;28;20209;-68
2022/01/31 05:26:07;;;;;;;7.53;5.90;;;5.40;99.90;;;;;;5033168;28;20669;-69
2022/01/31 05:28:32;;;;;;;10.33;7.37;;;5.50;99.90;;;;;;5033103;28;20774;-68
2022/01/31 05:30:58;;;;;;;6.30;5.30;;;5.50;99.90;;;;;;5033198;28;20174;-68
2022/01/31 05:33:23;;;;;;;11.57;5.40;;;5.60;99.90;;;;;;5034235;28;20177;-69
2022/01/31 05:35:49;;;;;;;8.17;5.43;;;5.50;99.90;;;;;;5032615;28;20294;-68
2022/01/31 05:38:15;;;;;;;12.70;6.10;;;5.60;99.90;;;;;;5033129;28;20259;-69
2022/01/31 05:40:40;;;;;;;8.73;5.23;;;5.60;99.90;;;;;;5033438;28;20174;-68
2022/01/31 05:43:06;;;;;;;15.40;5.87;;;5.60;99.90;;;;;;5033628;28;20182;-69
2022/01/31 05:45:31;;;;;;;11.30;5.43;;;5.60;99.90;;;;;;5032335;28;20218;-68
2022/01/31 05:47:57;;;;;;;8.70;5.40;;;5.70;99.90;;;;;;5033537;28;20514;-69
2022/01/31 05:50:22;;;;;;;6.63;6.00;;;5.70;99.90;;;;;;5033749;28;20167;-68
2022/01/31 05:52:48;;;;;;;10.07;6.07;;;5.80;99.90;;;;;;5034445;28;20203;-69
2022/01/31 05:55:14;;;;;;;17.73;7.20;;;5.80;99.90;;;;;;5033918;28;20718;-68
2022/01/31 05:57:42;;;;;;;8.60;5.17;;;5.90;99.90;;;;;;5036967;28;20250;-71
2022/01/31 06:00:09;;;;;;;7.40;4.77;;;5.80;99.90;;;;;;5037639;28;20402;-69
2022/01/31 06:02:35;;;;;;;16.53;5.50;;;5.80;99.90;;;;;;5037403;28;20434;-69
2022/01/31 06:05:02;;;;;;;5.73;4.50;;;5.80;99.90;;;;;;5038437;28;20468;-69
2022/01/31 06:07:28;;;;;;;6.67;4.90;;;5.80;99.90;;;;;;5037563;28;20405;-69
2022/01/31 06:09:53;;;;;;;7.20;5.10;;;5.90;99.90;;;;;;5020150;28;20475;-69
2022/01/31 06:12:19;;;;;;;6.50;4.83;;;5.80;99.90;;;;;;5037420;28;20182;-70
2022/01/31 06:14:44;;;;;;;13.20;5.50;;;5.80;99.90;;;;;;5020617;28;20198;-68
2022/01/31 06:17:10;;;;;;;11.17;4.40;;;5.80;99.90;;;;;;5037367;28;20206;-71
2022/01/31 06:19:35;;;;;;;9.37;6.23;;;5.80;99.90;;;;;;5040960;28;20171;-68
2022/01/31 06:22:01;;;;;;;15.73;6.23;;;5.70;99.90;;;;;;5033303;28;20196;-69
2022/01/31 06:24:27;;;;;;;7.60;4.93;;;5.70;99.90;;;;;;5015496;28;20207;-69
2022/01/31 06:26:53;;;;;;;11.53;5.30;;;5.80;99.90;;;;;;5033956;28;20195;-68
2022/01/31 06:29:19;;;;;;;9.93;5.70;;;5.90;99.90;;;;;;5015878;28;20281;-69
2022/01/31 06:31:44;;;;;;;9.10;5.33;;;5.90;99.90;;;;;;5032927;28;20610;-68
2022/01/31 06:34:11;;;;;;;10.53;5.20;;;5.90;99.90;;;;;;5033739;28;20536;-68
2022/01/31 06:36:36;;;;;;;10.83;4.30;;;5.90;99.90;;;;;;5035578;28;20218;-69
2022/01/31 06:39:03;;;;;;;9.73;4.43;;;5.90;99.90;;;;;;5043665;28;20949;-70
2022/01/31 06:41:29;;;;;;;17.50;5.33;;;6.00;99.90;;;;;;5052419;28;20194;-69
2022/01/31 06:43:55;;;;;;;11.23;4.73;;;6.00;99.90;;;;;;5016458;28;20577;-68
2022/01/31 06:46:21;;;;;;;11.23;4.10;;;6.00;99.90;;;;;;5015979;28;20480;-69
2022/01/31 06:48:47;;;;;;;9.03;4.10;;;6.00;99.90;;;;;;5034986;28;20463;-68
2022/01/31 06:51:14;;;;;;;7.63;4.30;;;6.00;99.90;;;;;;5034618;28;20753;-70
2022/01/31 06:53:40;;;;;;;19.53;4.40;;;6.00;99.90;;;;;;5033781;28;20448;-69
2022/01/31 06:56:06;;;;;;;9.90;4.97;;;6.00;99.90;;;;;;5034286;28;20428;-69
2022/01/31 06:58:32;;;;;;;6.70;3.63;;;6.10;99.90;;;;;;5032969;28;20453;-70
2022/01/31 07:00:58;;;;;;;10.37;3.67;;;6.10;99.90;;;;;;5031038;28;20202;-69
2022/01/31 07:03:24;;;;;;;12.80;4.43;;;6.10;99.90;;;;;;5033864;28;20583;-69
2022/01/31 07:05:49;;;;;;;9.43;3.63;;;6.10;99.90;;;;;;5016311;28;20462;-70
2022/01/31 07:08:16;;;;;;;10.00;3.50;;;6.10;99.90;;;;;;5033977;28;20174;-69
2022/01/31 07:10:50;;;;;;;10.67;4.33;;;6.10;99.90;;;;;;5035954;28;20219;-69
2022/01/31 07:13:36;;;;;;;7.20;3.67;;;6.00;99.90;;;;;;5017198;28;20808;-69
2022/01/31 07:16:04;;;;;;;6.27;3.30;;;5.80;99.90;;;;;;5034555;28;20389;-68
2022/01/31 07:18:31;;;;;;;6.27;2.30;;;5.60;99.90;;;;;;5034738;28;20934;-69
2022/01/31 07:20:57;;;;;;;3.30;2.27;;;5.40;99.90;;;;;;5036301;28;20955;-69
2022/01/31 07:23:39;;;;;;;8.40;2.40;;;5.10;99.90;;;;;;5034549;28;20404;-69
2022/01/31 07:26:05;;;;;;;6.87;2.30;;;4.90;99.90;;;;;;5034096;28;20202;-70
2022/01/31 07:28:30;;;;;;;3.40;2.50;;;4.70;99.90;;;;;;5034288;28;20759;-69
2022/01/31 07:30:57;;;;;;;3.77;2.53;;;4.70;99.90;;;;;;5034582;28;20229;-71
2022/01/31 07:33:23;;;;;;;6.00;2.10;;;4.60;99.90;;;;;;5014177;28;20205;-69
2022/01/31 07:35:49;;;;;;;4.70;2.57;;;4.50;99.90;;;;;;5014350;28;20886;-69
2022/01/31 07:38:16;;;;;;;7.70;2.80;;;4.50;99.90;;;;;;5012969;28;20472;-68
2022/01/31 07:40:42;;;;;;;2.60;2.40;;;4.60;99.90;;;;;;5016183;28;20516;-69
2022/01/31 07:43:08;;;;;;;6.23;2.77;;;4.60;99.90;;;;;;5028588;28;20495;-69
2022/01/31 07:45:34;;;;;;;6.33;2.17;;;4.70;99.90;;;;;;5033631;28;20467;-70
2022/01/31 07:47:59;;;;;;;3.60;2.50;;;4.70;99.90;;;;;;5033874;28;20168;-69
2022/01/31 07:50:25;;;;;;;6.37;3.20;;;4.80;99.90;;;;;;5033594;28;20399;-69
2022/01/31 07:52:52;;;;;;;10.73;3.40;;;4.90;99.90;;;;;;5034600;28;20212;-68
2022/01/31 07:55:18;;;;;;;6.40;3.43;;;4.90;99.90;;;;;;5034701;28;20972;-68
2022/01/31 07:57:46;;;;;;;4.67;2.77;;;4.90;99.90;;;;;;5015389;28;20668;-69
2022/01/31 08:00:13;;;;;;;5.67;3.63;;;4.90;99.90;;;;;;5033314;28;20177;-69
2022/01/31 08:02:39;;;;;;;6.87;3.33;;;4.90;99.90;;;;;;5033080;28;21338;-68
2022/01/31 08:05:07;;;;;;;4.70;3.07;;;4.90;99.90;;;;;;5034388;28;20482;-69
2022/01/31 08:07:33;;;;;;;6.50;4.53;;;4.70;99.90;;;;;;5015207;28;20428;-70
2022/01/31 08:10:01;;;;;;;8.33;3.57;;;4.80;99.90;;;;;;5034012;28;20417;-70
2022/01/31 08:12:26;;;;;;;9.50;4.53;;;4.80;99.90;;;;;;5032951;28;20464;-71
2022/01/31 08:14:52;;;;;;;7.20;4.27;;;4.80;99.90;;;;;;5034903;28;20869;-69
2022/01/31 08:17:17;;;;;;;6.83;4.33;;;4.80;99.90;;;;;;5033481;28;20543;-68
2022/01/31 08:19:43;;;;;;;8.63;5.07;;;4.70;99.90;;;;;;5033652;28;20253;-69
2022/01/31 08:22:09;;;;;;;9.00;5.07;;;4.80;99.90;;;;;;5034010;28;20263;-68
2022/01/31 08:24:34;;;;;;;8.93;5.40;;;4.80;99.90;;;;;;5035142;28;20658;-68
2022/01/31 08:27:00;;;;;;;6.67;4.90;;;4.80;99.90;;;;;;5033480;28;20415;-69
2022/01/31 08:29:31;;;;;;;12.77;5.17;;;4.90;99.90;;;;;;5034402;28;20200;-68
2022/01/31 08:31:57;;;;;;;9.17;4.90;;;4.80;99.90;;;;;;5034414;28;20161;-68
2022/01/31 08:37:08;;;;;;;12.23;5.17;;;4.80;99.90;;;;;;5050283;28;20426;-68
2022/01/31 08:39:33;;;;;;;10.50;5.60;;;4.80;99.90;;;;;;5041200;28;20436;-71
2022/01/31 08:41:59;;;;;;;12.50;5.23;;;4.80;99.90;;;;;;5034463;28;20196;-69
2022/01/31 08:44:24;;;;;;;13.50;5.27;;;4.80;99.90;;;;;;5034131;28;20225;-69
2022/01/31 08:46:51;;;;;;;6.80;4.87;;;4.80;99.90;;;;;;5034088;28;20251;-68
2022/01/31 08:49:17;;;;;;;14.17;5.83;;;4.90;99.90;;;;;;5036049;28;20183;-70
2022/01/31 08:51:44;;;;;;;7.80;4.40;;;4.90;99.90;;;;;;5017267;28;20427;-69
2022/01/31 08:54:10;;;;;;;7.43;5.40;;;4.90;99.90;;;;;;5035464;28;20482;-69
2022/01/31 08:56:44;;;;;;;11.97;5.27;;;4.90;99.90;;;;;;5034440;28;20410;-69
2022/01/31 08:59:16;;;;;;;10.27;4.73;;;4.90;99.90;;;;;;5035371;28;20441;-70
2022/01/31 09:01:52;;;;;;;6.43;4.10;;;4.90;99.90;;;;;;4997585;28;20422;-69
2022/01/31 09:04:32;;;;;;;6.20;3.87;;;4.90;99.90;;;;;;5014124;28;20474;-69
2022/01/31 09:06:58;;;;;;;9.33;4.80;;;4.80;99.90;;;;;;5013929;28;20399;-69
2022/01/31 09:09:24;;;;;;;9.10;4.57;;;4.80;99.90;;;;;;4996639;28;20413;-70
2022/01/31 09:11:49;;;;;;;8.00;4.00;;;4.80;99.90;;;;;;5015599;28;20728;-68
2022/01/31 09:14:15;;;;;;;5.30;4.10;;;4.70;99.90;;;;;;5016346;28;20523;-69
2022/01/31 09:16:41;;;;;;;7.20;3.67;;;4.70;99.90;;;;;;5033606;28;20206;-68
2022/01/31 09:19:06;;;;;;;5.03;3.20;;;4.70;99.90;;;;;;5033870;28;20165;-68
2022/01/31 09:21:32;;;;;;;11.87;3.67;;;4.70;99.90;;;;;;5035483;28;20209;-68
2022/01/31 09:23:57;;;;;;;4.97;3.60;;;4.80;99.90;;;;;;5034116;28;20287;-69
2022/01/31 09:26:24;;;;;;;5.30;3.10;;;4.90;99.90;;;;;;5033508;28;20594;-68
2022/01/31 09:28:51;;;;;;;7.13;3.80;;;4.90;99.90;;;;;;5034218;28;20543;-68
2022/01/31 09:31:17;;;;;;;4.93;3.53;;;4.90;99.90;;;;;;5038701;28;20422;-68
2022/01/31 09:33:42;;;;;;;22.63;4.90;;;4.90;99.90;;;;;;5018129;28;20425;-68
2022/01/31 09:36:08;;;;;;;6.50;3.60;;;4.90;99.90;;;;;;5020753;28;20416;-70
2022/01/31 09:38:33;;;;;;;6.10;2.97;;;4.90;99.90;;;;;;5020705;28;20541;-69
2022/01/31 09:40:59;;;;;;;8.17;3.60;;;4.80;99.90;;;;;;5021176;28;20190;-69
2022/01/31 09:43:52;;;;;;;5.23;3.23;;;4.80;99.90;;;;;;5048801;28;20183;-70
2022/01/31 09:48:51;;;;;;;5.13;2.80;;;4.90;99.90;;;;;;5061423;28;20404;-70
2022/01/31 09:51:21;;;;;;;6.60;3.40;;;4.80;99.90;;;;;;5062068;28;20474;-69
2022/01/31 09:53:56;;;;;;;3.70;2.57;;;4.80;99.90;;;;;;5058955;28;20422;-70
2022/01/31 09:56:25;;;;;;;4.70;3.20;;;4.90;99.90;;;;;;5060835;28;20438;-68
2022/01/31 09:58:52;;;;;;;5.00;3.47;;;4.90;99.90;;;;;;5060353;28;20493;-69
2022/01/31 10:01:21;;;;;;;6.77;2.83;;;4.90;99.90;;;;;;5060335;28;20419;-70
2022/01/31 10:04:02;;;;;;;7.20;2.87;;;4.80;99.90;;;;;;5040966;28;20430;-70
2022/01/31 10:06:32;;;;;;;5.97;3.10;;;4.80;99.90;;;;;;5061471;28;20715;-69
2022/01/31 10:09:11;;;;;;;8.10;3.10;;;4.80;99.90;;;;;;5062102;28;20403;-70
2022/01/31 10:11:51;;;;;;;10.43;3.60;;;4.70;99.90;;;;;;5061452;28;20838;-69
2022/01/31 10:17:08;;;;;;;10.03;3.47;;;4.80;99.90;;;;;;5060620;28;20435;-69
2022/01/31 10:19:42;;;;;;;10.23;3.50;;;4.80;99.90;;;;;;5060436;28;20453;-69
2022/01/31 10:22:11;;;;;;;12.90;3.03;;;4.90;99.90;;;;;;5060630;28;20462;-71
2022/01/31 10:24:38;;;;;;;6.83;3.30;;;4.90;99.90;;;;;;5057173;28;20475;-68
2022/01/31 10:27:10;;;;;;;6.07;2.83;;;4.90;99.90;;;;;;5039548;28;20426;-69
2022/01/31 10:29:36;;;;;;;14.00;3.47;;;5.00;99.90;;;;;;5041012;28;20637;-68
2022/01/31 10:32:06;;;;;;;10.90;3.23;;;4.90;99.90;;;;;;5022293;28;20563;-69
2022/01/31 10:34:52;;;;;;;12.53;3.93;;;4.90;99.90;;;;;;5023460;28;20919;-69
2022/01/31 10:37:21;;;;;;;6.23;2.80;;;4.90;99.90;;;;;;5058400;28;20440;-73
2022/01/31 10:45:52;;;;;;;9.73;3.30;;;5.00;99.90;;;;;;5036618;28;20475;-70
2022/01/31 10:54:13;;;;;;;9.73;3.10;;;4.90;99.90;;;;;;5038290;28;20401;-69
2022/01/31 10:56:50;;;;;;;6.07;3.07;;;4.80;99.90;;;;;;5036004;28;20451;-70
2022/01/31 10:59:20;;;;;;;10.83;4.43;;;4.90;99.90;;;;;;5037993;28;20455;-68
2022/01/31 11:01:47;;;;;;;9.53;5.83;;;4.90;99.90;;;;;;5036044;28;20421;-68
2022/01/31 11:04:16;;;;;;;16.00;7.10;;;5.00;99.90;;;;;;5034760;28;20460;-69
2022/01/31 11:06:45;;;;;;;13.40;8.77;;;4.90;99.90;;;;;;5017376;28;20419;-69
2022/01/31 11:09:16;;;;;;;13.10;7.63;;;4.90;99.90;;;;;;5035934;28;20406;-69
2022/01/31 11:11:44;;;;;;;17.67;9.40;;;4.80;99.90;;;;;;5038243;28;20446;-72
2022/01/31 11:14:11;;;;;;;20.57;9.43;;;4.80;99.90;;;;;;5037912;28;20484;-70
2022/01/31 11:16:40;;;;;;;21.53;12.03;;;4.80;99.90;;;;;;5035393;28;20423;-69
2022/01/31 11:19:08;;;;;;;11.60;9.23;;;4.90;99.90;;;;;;5035915;28;20500;-70
2022/01/31 11:21:40;;;;;;;14.10;10.13;;;4.90;99.90;;;;;;5036489;28;20511;-70
2022/01/31 11:24:18;;;;;;;17.60;9.30;;;4.90;99.90;;;;;;5035373;28;20452;-71
2022/01/31 11:26:54;;;;;;;18.30;12.53;;;4.90;99.90;;;;;;5035318;28;20497;-70
2022/01/31 11:29:19;;;;;;;15.40;10.73;;;4.90;99.90;;;;;;5035615;28;20397;-69
2022/01/31 11:31:46;;;;;;;14.27;8.57;;;4.90;99.90;;;;;;5035711;28;20433;-68
2022/01/31 11:34:12;;;;;;;20.83;11.53;;;4.90;99.90;;;;;;5021057;28;20325;-71
2022/01/31 11:36:40;;;;;;;18.13;9.60;;;4.90;99.90;;;;;;5015105;28;20415;-70
2022/01/31 11:39:10;;;;;;;17.50;8.80;;;5.00;99.90;;;;;;5015813;28;20427;-71
2022/01/31 11:41:41;;;;;;;18.00;7.97;;;5.00;99.90;;;;;;5016291;28;20422;-69
2022/01/31 11:44:26;;;;;;;13.00;5.73;;;5.10;99.90;;;;;;5053178;28;21011;-69
2022/01/31 11:46:55;;;;;;;15.17;8.50;;;5.00;99.90;;;;;;5054378;28;20407;-69
2022/01/31 11:49:21;;;;;;;15.20;8.07;;;5.00;99.90;;;;;;5036402;28;20444;-69
2022/01/31 11:51:50;;;;;;;13.80;7.77;;;5.00;99.90;;;;;;5054800;28;20411;-70
2022/01/31 11:54:22;;;;;;;17.13;8.27;;;5.00;99.90;;;;;;5038755;28;20444;-69
2022/01/31 11:56:52;;;;;;;17.53;8.57;;;5.00;99.90;;;;;;5034710;28;20409;-69
2022/01/31 11:59:21;;;;;;;18.87;9.77;;;5.00;99.90;;;;;;5035443;28;20755;-70
2022/01/31 12:01:50;;;;;;;13.00;6.03;;;5.00;99.90;;;;;;5016729;28;20418;-69
2022/01/31 12:04:16;;;;;;;14.40;7.33;;;5.00;99.90;;;;;;5029986;28;20470;-70
2022/01/31 12:06:41;;;;;;;18.03;7.13;;;5.00;99.90;;;;;;4995836;28;21144;-71
2022/01/31 12:09:13;;;;;;;22.37;7.60;;;4.90;99.90;;;;;;4997578;28;20455;-70
2022/01/31 12:12:06;;;;;;;27.77;10.50;;;4.90;99.90;;;;;;5016493;28;20572;-68
2022/01/31 12:14:44;;;;;;;24.17;9.60;;;5.00;99.90;;;;;;5033928;28;20461;-70
2022/01/31 12:23:39;;;;;;;16.77;6.40;;;5.20;99.90;;;;;;5034245;28;20455;-69
2022/01/31 12:26:33;;;;;;;19.07;8.93;;;5.20;99.90;;;;;;5033909;28;20436;-70
2022/01/31 12:29:08;;;;;;;20.20;8.67;;;5.20;99.90;;;;;;5033580;28;20442;-70
2022/01/31 12:31:34;;;;;;;23.50;9.73;;;5.30;99.90;;;;;;5040154;28;20431;-70
2022/01/31 12:34:00;;;;;;;24.03;9.63;;;5.30;99.90;;;;;;5040880;28;21033;-68
2022/01/31 12:36:31;;;;;;;27.83;14.60;;;5.30;99.90;;;;;;5035860;28;20202;-70
2022/01/31 12:38:57;;;;;;;29.80;9.90;;;5.40;99.90;;;;;;5040724;28;20441;-68
2022/01/31 12:41:31;;;;;;;13.87;7.60;;;5.30;99.90;;;;;;5053540;28;20485;-69
2022/01/31 12:44:36;;;;;;;21.03;9.40;;;5.40;99.90;;;;;;5047486;28;20241;-68
2022/01/31 12:47:17;;;;;;;22.83;8.00;;;5.30;99.90;;;;;;5053731;28;20771;-71
2022/01/31 12:49:44;;;;;;;17.73;8.70;;;5.30;99.90;;;;;;5053190;28;20432;-69
2022/01/31 12:52:11;;;;;;;23.30;9.90;;;5.30;99.90;;;;;;5053495;28;20441;-68
2022/01/31 12:54:39;;;;;;;21.07;10.63;;;5.30;99.90;;;;;;5056512;28;20424;-69
2022/01/31 12:57:13;;;;;;;19.00;9.83;;;5.30;99.90;;;;;;5056008;28;20458;-70
2022/01/31 12:59:49;;;;;;;15.83;6.50;;;5.40;99.90;;;;;;5059854;28;20422;-68
2022/01/31 13:02:15;;;;;;;15.33;5.40;;;5.30;99.90;;;;;;5066804;28;20407;-69
2022/01/31 13:04:48;;;;;;;14.77;4.97;;;5.20;99.90;;;;;;5065662;28;21003;-68
2022/01/31 13:07:15;;;;;;;8.40;4.60;;;5.20;99.90;;;;;;5067546;28;20177;-70
2022/01/31 13:09:43;;;;;;;13.37;7.03;;;5.10;99.90;;;;;;5066076;28;20429;-69
2022/01/31 13:12:14;;;;;;;7.53;6.40;;;5.10;99.90;;;;;;5022676;28;20501;-70
2022/01/31 13:14:51;;;;;;;10.90;6.70;;;5.10;99.90;;;;;;5036463;28;20452;-70
2022/01/31 13:17:24;;;;;;;8.30;5.03;;;5.10;99.90;;;;;;5018310;28;20469;-70
2022/01/31 13:19:58;;;;;;;13.80;7.37;;;5.00;99.90;;;;;;5045001;28;20394;-69
2022/01/31 13:22:41;;;;;;;10.60;6.93;;;5.00;99.90;;;;;;5049135;28;20533;-70
2022/01/31 13:25:14;;;;;;;11.17;6.87;;;5.10;99.90;;;;;;5030832;28;20468;-68